createdAt,value
2019-04-26T00:00:46.688Z,0.00
2019-04-26T00:01:45.524Z,0.00
2019-04-26T00:02:45.537Z,0.00
2019-04-26T00:03:45.490Z,0.00
2019-04-26T00:04:46.591Z,0.00
2019-04-26T00:05:45.480Z,0.00
2019-04-26T00:06:45.594Z,0.00
2019-04-26T00:07:45.490Z,0.00
2019-04-26T00:08:45.603Z,0.00
2019-04-26T00:09:45.456Z,0.00
2019-04-26T00:10:45.600Z,0.00
2019-04-26T00:11:45.404Z,0.00
2019-04-26T00:12:45.597Z,0.00
2019-04-26T00:13:45.419Z,0.00
2019-04-26T00:14:45.383Z,0.00
2019-04-26T00:15:45.390Z,0.00
2019-04-26T00:16:45.543Z,0.00
2019-04-26T00:17:45.397Z,0.00
2019-04-26T00:18:45.481Z,0.00
2019-04-26T00:19:45.342Z,0.00
2019-04-26T00:20:45.326Z,0.00
2019-04-26T00:21:45.316Z,0.00
2019-04-26T00:22:46.387Z,0.00
2019-04-26T00:23:45.281Z,0.00
2019-04-26T00:24:45.348Z,0.00
2019-04-26T00:25:45.276Z,0.00
2019-04-26T00:26:45.260Z,0.00
2019-04-26T00:27:45.286Z,0.00
2019-04-26T00:28:45.414Z,0.00
2019-04-26T00:29:45.227Z,0.00
2019-04-26T00:30:45.296Z,0.00
2019-04-26T00:31:45.211Z,0.00
2019-04-26T00:32:46.319Z,0.00
2019-04-26T00:33:45.186Z,0.00
2019-04-26T00:34:45.186Z,0.00
2019-04-26T00:35:47.903Z,0.00
2019-04-26T00:36:45.285Z,0.00
2019-04-26T00:37:45.165Z,0.00
2019-04-26T00:38:45.232Z,0.00
2019-04-26T00:39:45.124Z,0.00
2019-04-26T00:40:45.305Z,0.00
2019-04-26T00:41:45.125Z,0.00
2019-04-26T00:42:45.296Z,0.00
2019-04-26T00:43:45.115Z,0.00
2019-04-26T00:44:45.205Z,0.00
2019-04-26T00:45:45.048Z,0.00
2019-04-26T00:46:45.237Z,0.00
2019-04-26T00:47:45.082Z,0.00
2019-04-26T00:48:45.121Z,0.00
2019-04-26T00:49:45.015Z,0.00
2019-04-26T00:50:45.160Z,0.00
2019-04-26T00:51:45.095Z,0.00
2019-04-26T00:52:45.114Z,0.00
2019-04-26T00:53:45.074Z,0.00
2019-04-26T00:54:44.992Z,0.00
2019-04-26T00:55:45.084Z,0.00
2019-04-26T00:56:44.939Z,0.00
2019-04-26T00:57:44.947Z,0.00
2019-04-26T00:58:44.903Z,0.00
2019-04-26T00:59:45.014Z,0.00
2019-04-26T01:00:44.919Z,0.00
2019-04-26T01:01:46.067Z,0.00
2019-04-26T01:02:44.917Z,0.00
2019-04-26T01:03:45.950Z,0.00
2019-04-26T01:04:44.883Z,0.00
2019-04-26T01:05:44.947Z,0.00
2019-04-26T01:06:44.872Z,0.00
2019-04-26T01:07:45.010Z,0.00
2019-04-26T01:08:44.820Z,0.00
2019-04-26T01:09:44.978Z,0.00
2019-04-26T01:10:44.792Z,0.00
2019-04-26T01:11:44.907Z,0.00
2019-04-26T01:12:44.870Z,0.00
2019-04-26T01:13:44.906Z,0.00
2019-04-26T01:14:44.734Z,0.00
2019-04-26T01:15:44.828Z,0.00
2019-04-26T01:16:44.818Z,0.00
2019-04-26T01:17:44.775Z,0.00
2019-04-26T01:18:44.833Z,0.00
2019-04-26T01:19:44.721Z,0.00
2019-04-26T01:20:44.841Z,0.00
2019-04-26T01:21:44.670Z,0.00
2019-04-26T01:22:44.698Z,0.00
2019-04-26T01:23:44.693Z,0.00
2019-04-26T01:24:44.776Z,0.00
2019-04-26T01:25:44.639Z,0.00
2019-04-26T01:26:44.785Z,0.00
2019-04-26T01:27:44.654Z,0.00
2019-04-26T01:28:44.609Z,0.00
2019-04-26T01:29:44.592Z,0.00
2019-04-26T01:30:44.707Z,0.00
2019-04-26T01:31:44.594Z,0.00
2019-04-26T01:32:44.696Z,0.00
2019-04-26T01:33:44.537Z,0.00
2019-04-26T01:34:44.629Z,0.00
2019-04-26T01:35:44.522Z,0.00
2019-04-26T01:36:45.669Z,0.00
2019-04-26T01:37:44.538Z,0.00
2019-04-26T01:38:45.584Z,0.00
2019-04-26T01:39:44.504Z,0.00
2019-04-26T01:40:46.637Z,0.00
2019-04-26T01:41:44.451Z,0.00
2019-04-26T01:42:44.656Z,0.00
2019-04-26T01:43:44.505Z,0.00
2019-04-26T01:44:44.598Z,0.00
2019-04-26T01:45:44.417Z,0.00
2019-04-26T01:46:44.502Z,0.00
2019-04-26T01:47:44.428Z,0.00
2019-04-26T01:48:44.454Z,0.00
2019-04-26T01:49:44.429Z,0.00
2019-04-26T01:50:44.506Z,0.00
2019-04-26T01:51:44.353Z,0.00
2019-04-26T01:52:44.509Z,0.00
2019-04-26T01:53:44.466Z,0.00
2019-04-26T01:54:44.308Z,0.00
2019-04-26T01:55:44.466Z,0.00
2019-04-26T01:56:44.323Z,0.00
2019-04-26T01:57:44.440Z,0.00
2019-04-26T01:58:44.276Z,0.00
2019-04-26T01:59:44.260Z,0.00
2019-04-26T02:00:44.263Z,0.00
2019-04-26T02:01:45.325Z,0.00
2019-04-26T02:02:44.310Z,0.00
2019-04-26T02:03:44.321Z,0.00
2019-04-26T02:04:44.210Z,0.00
2019-04-26T02:05:44.210Z,0.00
2019-04-26T02:06:44.182Z,0.00
2019-04-26T02:07:44.304Z,0.00
2019-04-26T02:08:44.237Z,0.00
2019-04-26T02:09:44.253Z,0.00
2019-04-26T02:10:44.145Z,0.00
2019-04-26T02:11:44.312Z,0.00
2019-04-26T02:12:44.183Z,0.00
2019-04-26T02:13:44.279Z,0.00
2019-04-26T02:14:44.181Z,0.00
2019-04-26T02:15:44.188Z,0.00
2019-04-26T02:16:44.109Z,0.00
2019-04-26T02:17:44.269Z,0.00
2019-04-26T02:18:44.091Z,0.00
2019-04-26T02:19:44.212Z,0.00
2019-04-26T02:20:44.069Z,0.00
2019-04-26T02:21:44.141Z,0.00
2019-04-26T02:22:44.054Z,0.00
2019-04-26T02:23:44.139Z,0.00
2019-04-26T02:24:44.021Z,0.00
2019-04-26T02:25:45.063Z,0.00
2019-04-26T02:26:44.059Z,0.00
2019-04-26T02:27:44.063Z,0.00
2019-04-26T02:28:43.964Z,0.00
2019-04-26T02:29:44.082Z,0.00
2019-04-26T02:30:44.088Z,0.00
2019-04-26T02:31:43.973Z,0.00
2019-04-26T02:32:44.018Z,0.00
2019-04-26T02:33:43.925Z,0.00
2019-04-26T02:34:44.012Z,0.00
2019-04-26T02:35:43.891Z,0.00
2019-04-26T02:36:57.304Z,0.00
2019-04-26T02:37:44.905Z,0.00
2019-04-26T02:38:43.953Z,0.00
2019-04-26T02:39:43.853Z,0.00
2019-04-26T02:40:44.063Z,0.00
2019-04-26T02:41:43.833Z,0.00
2019-04-26T02:42:45.450Z,0.00
2019-04-26T02:43:43.809Z,0.00
2019-04-26T02:44:43.904Z,0.00
2019-04-26T02:45:43.786Z,0.00
2019-04-26T02:46:43.891Z,0.00
2019-04-26T02:47:43.766Z,0.00
2019-04-26T02:48:43.855Z,0.00
2019-04-26T02:49:43.743Z,0.00
2019-04-26T02:50:43.937Z,0.00
2019-04-26T02:51:43.732Z,0.00
2019-04-26T02:52:43.839Z,0.00
2019-04-26T02:53:43.746Z,0.00
2019-04-26T02:54:43.783Z,0.00
2019-04-26T02:55:43.736Z,0.00
2019-04-26T02:56:43.783Z,0.00
2019-04-26T02:57:43.719Z,0.00
2019-04-26T02:58:43.767Z,0.00
2019-04-26T02:59:43.647Z,0.00
2019-04-26T03:00:43.779Z,0.00
2019-04-26T03:01:43.683Z,0.00
2019-04-26T03:02:43.699Z,0.00
2019-04-26T03:03:43.697Z,0.00
2019-04-26T03:04:43.593Z,0.00
2019-04-26T03:05:43.719Z,0.00
2019-04-26T03:06:43.564Z,0.00
2019-04-26T03:07:43.581Z,0.00
2019-04-26T03:08:43.564Z,0.00
2019-04-26T03:09:44.670Z,0.00
2019-04-26T03:10:43.706Z,0.00
2019-04-26T03:11:44.578Z,0.00
2019-04-26T03:12:43.549Z,0.00
2019-04-26T03:13:43.790Z,0.00
2019-04-26T03:14:43.484Z,0.00
2019-04-26T03:15:43.582Z,0.00
2019-04-26T03:16:43.464Z,0.00
2019-04-26T03:17:43.510Z,0.00
2019-04-26T03:18:44.090Z,0.00
2019-04-26T03:19:44.518Z,0.00
2019-04-26T03:20:43.435Z,0.00
2019-04-26T03:21:43.524Z,0.00
2019-04-26T03:22:43.433Z,0.00
2019-04-26T03:23:57.067Z,0.00
2019-04-26T03:24:44.361Z,0.00
2019-04-26T03:25:43.437Z,0.00
2019-04-26T03:26:43.490Z,0.00
2019-04-26T03:27:43.654Z,0.00
2019-04-26T03:28:43.850Z,0.00
2019-04-26T03:29:43.819Z,0.00
2019-04-26T03:30:51.071Z,0.00
2019-04-26T03:31:53.015Z,0.00
2019-04-26T03:32:50.707Z,0.00
2019-04-26T03:33:52.435Z,0.00
2019-04-26T03:34:53.459Z,0.00
2019-04-26T03:35:55.923Z,0.00
2019-04-26T03:36:44.488Z,0.00
2019-04-26T03:37:44.546Z,0.00
2019-04-26T03:38:43.638Z,0.00
2019-04-26T03:39:44.509Z,0.00
2019-04-26T03:40:44.565Z,0.00
2019-04-26T03:41:44.423Z,0.00
2019-04-26T03:42:44.120Z,0.00
2019-04-26T03:43:44.516Z,0.00
2019-04-26T03:44:44.228Z,0.00
2019-04-26T03:45:44.594Z,0.00
2019-04-26T03:46:45.157Z,0.00
2019-04-26T03:47:45.537Z,0.00
2019-04-26T03:48:44.825Z,0.00
2019-04-26T03:49:44.344Z,0.00
2019-04-26T03:50:44.901Z,0.00
2019-04-26T03:51:44.905Z,0.00
2019-04-26T03:52:44.089Z,0.00
2019-04-26T03:53:44.420Z,0.00
2019-04-26T03:54:43.136Z,0.00
2019-04-26T03:55:43.691Z,0.00
2019-04-26T03:56:43.584Z,0.00
2019-04-26T03:57:44.704Z,0.00
2019-04-26T03:58:43.639Z,0.00
2019-04-26T03:59:44.248Z,0.00
2019-04-26T04:00:45.023Z,0.00
2019-04-26T04:01:45.007Z,0.00
2019-04-26T04:02:45.551Z,0.00
2019-04-26T04:03:45.390Z,0.00
2019-04-26T04:04:44.802Z,0.00
2019-04-26T04:05:44.225Z,0.00
2019-04-26T04:06:58.102Z,0.00
2019-04-26T04:07:49.399Z,0.00
2019-04-26T04:08:45.765Z,5.62
2019-04-26T04:09:42.940Z,5.62
2019-04-26T04:10:44.142Z,5.62
2019-04-26T04:11:44.324Z,5.62
2019-04-26T04:12:51.757Z,5.62
2019-04-26T04:13:46.760Z,5.62
2019-04-26T04:14:45.091Z,5.62
2019-04-26T04:15:44.704Z,11.25
2019-04-26T04:16:43.683Z,11.25
2019-04-26T04:17:45.410Z,11.25
2019-04-26T04:18:43.865Z,11.25
2019-04-26T04:19:43.979Z,11.25
2019-04-26T04:20:44.399Z,11.25
2019-04-26T04:21:44.508Z,11.25
2019-04-26T04:22:43.922Z,16.88
2019-04-26T04:23:43.513Z,16.88
2019-04-26T04:24:44.630Z,16.88
2019-04-26T04:25:44.270Z,16.88
2019-04-26T04:26:43.450Z,16.88
2019-04-26T04:27:43.893Z,16.88
2019-04-26T04:28:44.525Z,16.88
2019-04-26T04:29:50.029Z,16.88
2019-04-26T04:30:45.428Z,16.88
2019-04-26T04:31:44.340Z,16.88
2019-04-26T04:32:44.308Z,22.50
2019-04-26T04:33:43.732Z,22.50
2019-04-26T04:34:43.973Z,22.50
2019-04-26T04:35:45.343Z,28.12
2019-04-26T04:36:45.867Z,28.12
2019-04-26T04:38:01.723Z,28.12
2019-04-26T04:38:44.697Z,28.12
2019-04-26T04:39:44.402Z,28.12
2019-04-26T04:40:42.739Z,28.12
2019-04-26T04:41:43.013Z,28.12
2019-04-26T04:42:43.612Z,22.50
2019-04-26T04:43:44.352Z,22.50
2019-04-26T04:44:44.381Z,22.50
2019-04-26T04:45:44.031Z,22.50
2019-04-26T04:46:43.854Z,22.50
2019-04-26T04:47:45.115Z,22.50
2019-04-26T04:48:44.563Z,22.50
2019-04-26T04:49:44.942Z,28.12
2019-04-26T04:50:43.157Z,28.12
2019-04-26T04:51:44.192Z,22.50
2019-04-26T04:52:43.252Z,22.50
2019-04-26T04:53:43.445Z,22.50
2019-04-26T04:54:43.215Z,16.88
2019-04-26T04:55:44.455Z,16.88
2019-04-26T04:56:43.529Z,16.88
2019-04-26T04:57:43.870Z,16.88
2019-04-26T04:58:43.602Z,22.50
2019-04-26T04:59:42.439Z,22.50
2019-04-26T05:00:43.077Z,28.12
2019-04-26T05:01:42.853Z,33.75
2019-04-26T05:02:43.454Z,39.38
2019-04-26T05:03:43.503Z,45.00
2019-04-26T05:04:42.571Z,45.00
2019-04-26T05:05:43.476Z,45.00
2019-04-26T05:06:42.826Z,45.00
2019-04-26T05:07:43.842Z,39.38
2019-04-26T05:08:42.911Z,33.75
2019-04-26T05:09:43.900Z,33.75
2019-04-26T05:10:44.192Z,39.38
2019-04-26T05:11:43.364Z,50.62
2019-04-26T05:12:42.240Z,61.88
2019-04-26T05:13:42.314Z,67.50
2019-04-26T05:14:42.227Z,67.50
2019-04-26T05:15:44.565Z,73.12
2019-04-26T05:16:42.206Z,78.75
2019-04-26T05:17:42.247Z,78.75
2019-04-26T05:18:42.159Z,78.75
2019-04-26T05:19:42.246Z,78.75
2019-04-26T05:20:42.177Z,78.75
2019-04-26T05:21:42.238Z,78.75
2019-04-26T05:22:42.119Z,78.75
2019-04-26T05:23:42.174Z,84.38
2019-04-26T05:24:42.096Z,84.38
2019-04-26T05:25:42.179Z,84.38
2019-04-26T05:26:42.080Z,78.75
2019-04-26T05:27:42.294Z,78.75
2019-04-26T05:28:42.097Z,84.38
2019-04-26T05:29:42.214Z,95.62
2019-04-26T05:30:42.069Z,101.25
2019-04-26T05:31:42.230Z,106.88
2019-04-26T05:32:42.041Z,101.25
2019-04-26T05:33:42.178Z,101.25
2019-04-26T05:34:42.171Z,106.88
2019-04-26T05:35:41.981Z,118.12
2019-04-26T05:36:42.166Z,135.00
2019-04-26T05:37:41.960Z,146.25
2019-04-26T05:38:42.135Z,157.50
2019-04-26T05:39:41.960Z,168.75
2019-04-26T05:40:41.938Z,163.12
2019-04-26T05:41:41.909Z,151.88
2019-04-26T05:42:42.102Z,146.25
2019-04-26T05:43:41.902Z,129.38
2019-04-26T05:44:42.069Z,112.50
2019-04-26T05:45:41.868Z,95.62
2019-04-26T05:46:41.884Z,90.00
2019-04-26T05:47:41.854Z,90.00
2019-04-26T05:48:42.032Z,84.38
2019-04-26T05:49:41.829Z,90.00
2019-04-26T05:50:42.015Z,95.62
2019-04-26T05:51:41.805Z,112.50
2019-04-26T05:52:41.822Z,123.75
2019-04-26T05:53:41.853Z,146.25
2019-04-26T05:54:41.968Z,151.88
2019-04-26T05:55:41.785Z,157.50
2019-04-26T05:56:41.885Z,157.50
2019-04-26T05:57:41.769Z,157.50
2019-04-26T05:58:41.761Z,163.12
2019-04-26T05:59:41.716Z,151.88
2019-04-26T06:00:41.902Z,168.75
2019-04-26T06:01:41.758Z,180.00
2019-04-26T06:02:41.823Z,208.12
2019-04-26T06:03:41.683Z,213.75
2019-04-26T06:04:41.677Z,225.00
2019-04-26T06:05:41.659Z,230.62
2019-04-26T06:06:42.776Z,208.12
2019-04-26T06:07:41.663Z,191.25
2019-04-26T06:08:41.752Z,185.62
2019-04-26T06:09:41.624Z,168.75
2019-04-26T06:10:41.632Z,163.12
2019-04-26T06:11:41.583Z,157.50
2019-04-26T06:12:41.643Z,151.88
2019-04-26T06:13:41.582Z,157.50
2019-04-26T06:14:41.700Z,163.12
2019-04-26T06:15:41.540Z,174.38
2019-04-26T06:16:41.586Z,180.00
2019-04-26T06:17:41.582Z,174.38
2019-04-26T06:18:41.730Z,180.00
2019-04-26T06:19:41.514Z,180.00
2019-04-26T06:20:41.559Z,168.75
2019-04-26T06:21:41.484Z,168.75
2019-04-26T06:22:41.545Z,163.12
2019-04-26T06:23:41.472Z,146.25
2019-04-26T06:24:41.596Z,163.12
2019-04-26T06:25:41.452Z,180.00
2019-04-26T06:26:41.473Z,196.88
2019-04-26T06:27:41.450Z,213.75
2019-04-26T06:28:41.605Z,236.25
2019-04-26T06:29:41.454Z,253.12
2019-04-26T06:30:45.674Z,253.12
2019-04-26T06:31:41.378Z,253.12
2019-04-26T06:32:41.731Z,253.12
2019-04-26T06:33:41.365Z,292.50
2019-04-26T06:34:41.532Z,315.00
2019-04-26T06:35:41.364Z,320.62
2019-04-26T06:36:41.585Z,315.00
2019-04-26T06:37:41.342Z,303.75
2019-04-26T06:38:44.123Z,298.12
2019-04-26T06:39:41.296Z,281.25
2019-04-26T06:40:42.097Z,270.00
2019-04-26T06:41:41.294Z,270.00
2019-04-26T06:42:41.358Z,253.12
2019-04-26T06:43:41.261Z,241.88
2019-04-26T06:44:43.438Z,230.62
2019-04-26T06:45:41.228Z,225.00
2019-04-26T06:46:41.426Z,225.00
2019-04-26T06:47:41.258Z,219.38
2019-04-26T06:48:42.368Z,241.88
2019-04-26T06:49:41.189Z,258.75
2019-04-26T06:50:41.347Z,281.25
2019-04-26T06:51:41.172Z,286.88
2019-04-26T06:52:41.174Z,270.00
2019-04-26T06:53:41.141Z,230.62
2019-04-26T06:54:41.258Z,208.12
2019-04-26T06:55:41.124Z,196.88
2019-04-26T06:56:41.266Z,196.88
2019-04-26T06:57:41.191Z,196.88
2019-04-26T06:58:41.103Z,202.50
2019-04-26T06:59:41.096Z,213.75
2019-04-26T07:00:41.186Z,225.00
2019-04-26T07:01:41.061Z,241.88
2019-04-26T07:02:41.262Z,258.75
2019-04-26T07:03:41.041Z,264.38
2019-04-26T07:04:42.019Z,258.75
2019-04-26T07:05:41.065Z,241.88
2019-04-26T07:06:41.129Z,225.00
2019-04-26T07:07:41.033Z,208.12
2019-04-26T07:08:42.173Z,185.62
2019-04-26T07:09:40.970Z,174.38
2019-04-26T07:10:40.960Z,146.25
2019-04-26T07:11:40.985Z,135.00
2019-04-26T07:12:41.139Z,135.00
2019-04-26T07:13:40.994Z,146.25
2019-04-26T07:14:41.082Z,157.50
2019-04-26T07:15:40.906Z,168.75
2019-04-26T07:16:40.901Z,163.12
2019-04-26T07:17:40.889Z,163.12
2019-04-26T07:18:41.090Z,163.12
2019-04-26T07:19:40.910Z,163.12
2019-04-26T07:20:41.036Z,168.75
2019-04-26T07:21:40.843Z,174.38
2019-04-26T07:22:40.848Z,185.62
2019-04-26T07:23:40.830Z,191.25
2019-04-26T07:24:41.901Z,196.88
2019-04-26T07:25:40.802Z,208.12
2019-04-26T07:26:40.998Z,213.75
2019-04-26T07:27:40.793Z,225.00
2019-04-26T07:28:40.773Z,241.88
2019-04-26T07:29:40.939Z,258.75
2019-04-26T07:30:40.851Z,275.62
2019-04-26T07:31:40.886Z,303.75
2019-04-26T07:32:40.730Z,337.50
2019-04-26T07:33:40.912Z,371.25
2019-04-26T07:34:40.720Z,382.50
2019-04-26T07:35:40.889Z,410.62
2019-04-26T07:36:40.692Z,427.50
2019-04-26T07:37:40.999Z,433.12
2019-04-26T07:38:40.739Z,433.12
2019-04-26T07:39:40.877Z,427.50
2019-04-26T07:40:40.667Z,427.50
2019-04-26T07:41:40.765Z,438.75
2019-04-26T07:42:40.807Z,444.38
2019-04-26T07:43:40.695Z,450.00
2019-04-26T07:44:40.590Z,421.88
2019-04-26T07:45:40.642Z,399.38
2019-04-26T07:46:40.599Z,376.88
2019-04-26T07:47:40.685Z,343.12
2019-04-26T07:48:40.618Z,309.38
2019-04-26T07:49:40.621Z,270.00
2019-04-26T07:50:40.588Z,236.25
2019-04-26T07:51:40.549Z,208.12
2019-04-26T07:52:40.613Z,191.25
2019-04-26T07:53:40.584Z,185.62
2019-04-26T07:54:40.571Z,180.00
2019-04-26T07:55:40.727Z,174.38
2019-04-26T07:56:40.470Z,174.38
2019-04-26T07:57:40.510Z,174.38
2019-04-26T07:58:40.481Z,180.00
2019-04-26T07:59:40.509Z,191.25
2019-04-26T08:00:44.907Z,196.88
2019-04-26T08:01:41.439Z,196.88
2019-04-26T08:02:40.441Z,196.88
2019-04-26T08:03:40.395Z,202.50
2019-04-26T08:04:40.455Z,208.12
2019-04-26T08:05:40.378Z,202.50
2019-04-26T08:06:40.478Z,191.25
2019-04-26T08:07:40.403Z,174.38
2019-04-26T08:08:40.484Z,174.38
2019-04-26T08:09:40.345Z,180.00
2019-04-26T08:10:40.395Z,185.62
2019-04-26T08:11:40.309Z,202.50
2019-04-26T08:12:40.494Z,236.25
2019-04-26T08:13:40.378Z,264.38
2019-04-26T08:14:40.434Z,247.50
2019-04-26T08:15:40.325Z,219.38
2019-04-26T08:16:42.539Z,202.50
2019-04-26T08:17:40.300Z,202.50
2019-04-26T08:18:40.473Z,196.88
2019-04-26T08:19:40.297Z,196.88
2019-04-26T08:20:40.257Z,202.50
2019-04-26T08:21:42.774Z,191.25
2019-04-26T08:22:41.889Z,185.62
2019-04-26T08:23:42.216Z,180.00
2019-04-26T08:24:40.299Z,174.38
2019-04-26T08:25:40.174Z,174.38
2019-04-26T08:26:40.323Z,168.75
2019-04-26T08:27:40.206Z,163.12
2019-04-26T08:28:40.223Z,157.50
2019-04-26T08:29:40.134Z,151.88
2019-04-26T08:30:44.760Z,151.88
2019-04-26T08:31:40.157Z,146.25
2019-04-26T08:32:42.294Z,140.62
2019-04-26T08:33:40.480Z,135.00
2019-04-26T08:34:41.196Z,135.00
2019-04-26T08:35:40.066Z,123.75
2019-04-26T08:36:40.185Z,118.12
2019-04-26T08:37:40.090Z,112.50
2019-04-26T08:38:40.149Z,112.50
2019-04-26T08:39:45.543Z,112.50
2019-04-26T08:40:41.149Z,112.50
2019-04-26T08:41:40.238Z,112.50
2019-04-26T08:42:41.108Z,112.50
2019-04-26T08:43:39.986Z,106.88
2019-04-26T08:44:39.977Z,106.88
2019-04-26T08:45:40.554Z,101.25
2019-04-26T08:46:41.075Z,101.25
2019-04-26T08:47:40.128Z,101.25
2019-04-26T08:48:48.765Z,95.62
2019-04-26T08:49:40.095Z,95.62
2019-04-26T08:50:42.188Z,95.62
2019-04-26T08:51:39.901Z,101.25
2019-04-26T08:52:43.238Z,106.88
2019-04-26T08:53:39.860Z,112.50
2019-04-26T08:54:41.029Z,118.12
2019-04-26T08:55:39.854Z,123.75
2019-04-26T08:56:39.867Z,129.38
2019-04-26T08:57:39.870Z,135.00
2019-04-26T08:58:43.335Z,140.62
2019-04-26T08:59:39.970Z,151.88
2019-04-26T09:00:47.842Z,163.12
2019-04-26T09:01:42.066Z,168.75
2019-04-26T09:02:39.881Z,180.00
2019-04-26T09:03:39.833Z,202.50
2019-04-26T09:04:39.885Z,230.62
2019-04-26T09:05:39.745Z,258.75
2019-04-26T09:06:39.884Z,281.25
2019-04-26T09:07:39.735Z,292.50
2019-04-26T09:08:43.602Z,303.75
2019-04-26T09:09:40.712Z,326.25
2019-04-26T09:10:43.277Z,393.75
2019-04-26T09:11:39.666Z,433.12
2019-04-26T09:12:54.791Z,466.88
2019-04-26T09:13:39.661Z,483.75
2019-04-26T09:14:39.677Z,438.75
2019-04-26T09:15:40.696Z,427.50
2019-04-26T09:16:50.137Z,421.88
2019-04-26T09:17:40.610Z,444.38
2019-04-26T09:18:43.510Z,500.62
2019-04-26T09:19:39.622Z,517.50
2019-04-26T09:20:42.943Z,500.62
2019-04-26T09:21:40.122Z,416.25
2019-04-26T09:22:39.549Z,337.50
2019-04-26T09:23:40.533Z,298.12
2019-04-26T09:24:39.560Z,253.12
2019-04-26T09:25:39.803Z,241.88
2019-04-26T09:26:42.491Z,303.75
2019-04-26T09:27:40.666Z,286.88
2019-04-26T09:28:39.500Z,281.25
2019-04-26T09:29:39.660Z,247.50
2019-04-26T09:30:42.443Z,236.25
2019-04-26T09:31:39.577Z,258.75
2019-04-26T09:32:39.464Z,247.50
2019-04-26T09:33:39.581Z,191.25
2019-04-26T09:34:41.341Z,174.38
2019-04-26T09:35:39.737Z,174.38
2019-04-26T09:36:39.456Z,225.00
2019-04-26T09:37:39.590Z,258.75
2019-04-26T09:38:40.558Z,320.62
2019-04-26T09:39:41.588Z,360.00
2019-04-26T09:40:40.449Z,405.00
2019-04-26T09:41:39.392Z,427.50
2019-04-26T09:42:40.920Z,506.25
2019-04-26T09:43:39.362Z,523.12
2019-04-26T09:44:41.336Z,551.25
2019-04-26T09:45:39.478Z,607.50
2019-04-26T09:46:39.332Z,635.62
2019-04-26T09:47:39.483Z,613.12
2019-04-26T09:48:39.282Z,579.38
2019-04-26T09:49:41.123Z,601.88
2019-04-26T09:50:39.412Z,703.12
2019-04-26T09:51:40.424Z,821.25
2019-04-26T09:52:39.611Z,900.00
2019-04-26T09:53:39.551Z,928.12
2019-04-26T09:54:39.361Z,945.00
2019-04-26T09:55:39.211Z,956.25
2019-04-26T09:56:39.228Z,995.62
2019-04-26T09:57:39.195Z,990.00
2019-04-26T09:58:39.368Z,911.25
2019-04-26T09:59:40.051Z,798.75
2019-04-26T10:00:40.402Z,725.62
2019-04-26T10:01:39.171Z,646.88
2019-04-26T10:02:39.148Z,534.38
2019-04-26T10:03:39.132Z,489.38
2019-04-26T10:04:40.368Z,590.62
2019-04-26T10:05:39.123Z,708.75
2019-04-26T10:06:39.221Z,821.25
2019-04-26T10:07:39.236Z,826.88
2019-04-26T10:08:43.283Z,826.88
2019-04-26T10:09:40.048Z,770.62
2019-04-26T10:10:39.302Z,635.62
2019-04-26T10:11:39.617Z,562.50
2019-04-26T10:12:39.241Z,562.50
2019-04-26T10:13:39.018Z,534.38
2019-04-26T10:14:38.997Z,483.75
2019-04-26T10:15:39.214Z,472.50
2019-04-26T10:16:42.162Z,478.12
2019-04-26T10:17:39.100Z,500.62
2019-04-26T10:18:38.995Z,686.25
2019-04-26T10:19:38.957Z,815.62
2019-04-26T10:20:38.948Z,866.25
2019-04-26T10:21:38.961Z,849.38
2019-04-26T10:22:39.965Z,804.38
2019-04-26T10:23:38.933Z,781.88
2019-04-26T10:24:39.026Z,686.25
2019-04-26T10:25:38.927Z,635.62
2019-04-26T10:26:40.014Z,708.75
2019-04-26T10:27:40.842Z,731.25
2019-04-26T10:28:38.951Z,753.75
2019-04-26T10:29:38.861Z,776.25
2019-04-26T10:30:42.392Z,804.38
2019-04-26T10:31:38.808Z,877.50
2019-04-26T10:32:38.986Z,978.75
2019-04-26T10:33:38.801Z,1023.75
2019-04-26T10:34:42.799Z,984.38
2019-04-26T10:35:39.770Z,939.38
2019-04-26T10:36:38.860Z,1012.50
2019-04-26T10:37:39.825Z,1040.62
2019-04-26T10:38:38.864Z,1203.75
2019-04-26T10:39:38.742Z,1085.62
2019-04-26T10:40:38.829Z,1125.00
2019-04-26T10:41:38.696Z,1186.88
2019-04-26T10:42:38.845Z,1113.75
2019-04-26T10:43:38.698Z,1012.50
2019-04-26T10:44:39.787Z,922.50
2019-04-26T10:45:38.661Z,871.88
2019-04-26T10:46:38.706Z,787.50
2019-04-26T10:47:39.941Z,742.50
2019-04-26T10:48:41.236Z,646.88
2019-04-26T10:49:38.622Z,489.38
2019-04-26T10:50:40.714Z,450.00
2019-04-26T10:51:41.815Z,461.25
2019-04-26T10:52:39.721Z,489.38
2019-04-26T10:53:38.590Z,540.00
2019-04-26T10:54:41.222Z,618.75
2019-04-26T10:55:38.559Z,680.62
2019-04-26T10:56:38.734Z,731.25
2019-04-26T10:57:38.565Z,821.25
2019-04-26T10:58:38.992Z,815.62
2019-04-26T10:59:39.792Z,804.38
2019-04-26T11:00:39.644Z,714.38
2019-04-26T11:01:38.672Z,720.00
2019-04-26T11:02:38.622Z,652.50
2019-04-26T11:03:38.476Z,568.12
2019-04-26T11:04:41.418Z,495.00
2019-04-26T11:05:38.461Z,489.38
2019-04-26T11:06:38.572Z,635.62
2019-04-26T11:07:38.467Z,731.25
2019-04-26T11:08:38.560Z,742.50
2019-04-26T11:09:38.424Z,793.12
2019-04-26T11:10:47.870Z,793.12
2019-04-26T11:11:39.496Z,742.50
2019-04-26T11:12:43.442Z,663.75
2019-04-26T11:13:38.490Z,540.00
2019-04-26T11:14:39.425Z,405.00
2019-04-26T11:15:38.381Z,320.62
2019-04-26T11:16:41.178Z,303.75
2019-04-26T11:17:38.340Z,309.38
2019-04-26T11:18:38.466Z,303.75
2019-04-26T11:19:38.520Z,270.00
2019-04-26T11:20:41.490Z,230.62
2019-04-26T11:21:39.276Z,230.62
2019-04-26T11:22:39.119Z,264.38
2019-04-26T11:23:41.052Z,309.38
2019-04-26T11:24:40.337Z,354.38
2019-04-26T11:25:38.263Z,388.12
2019-04-26T11:26:38.457Z,354.38
2019-04-26T11:27:40.082Z,303.75
2019-04-26T11:28:41.871Z,281.25
2019-04-26T11:29:38.209Z,270.00
2019-04-26T11:30:39.328Z,303.75
2019-04-26T11:31:38.174Z,388.12
2019-04-26T11:32:38.277Z,472.50
2019-04-26T11:33:44.674Z,545.62
2019-04-26T11:34:39.378Z,613.12
2019-04-26T11:35:38.155Z,601.88
2019-04-26T11:36:41.788Z,551.25
2019-04-26T11:37:38.127Z,483.75
2019-04-26T11:38:38.254Z,427.50
2019-04-26T11:39:40.438Z,360.00
2019-04-26T11:40:38.170Z,309.38
2019-04-26T11:41:39.125Z,309.38
2019-04-26T11:42:38.273Z,309.38
2019-04-26T11:43:38.678Z,337.50
2019-04-26T11:44:38.197Z,360.00
2019-04-26T11:45:38.043Z,360.00
2019-04-26T11:46:44.833Z,348.75
2019-04-26T11:47:54.269Z,354.38
2019-04-26T11:48:38.990Z,348.75
2019-04-26T11:49:41.550Z,309.38
2019-04-26T11:50:37.975Z,320.62
2019-04-26T11:51:37.978Z,320.62
2019-04-26T11:52:38.162Z,354.38
2019-04-26T11:53:40.634Z,416.25
2019-04-26T11:54:40.039Z,450.00
2019-04-26T11:55:37.919Z,461.25
2019-04-26T11:56:38.861Z,450.00
2019-04-26T11:57:40.020Z,489.38
2019-04-26T11:58:37.983Z,534.38
2019-04-26T11:59:37.875Z,540.00
2019-04-26T12:00:39.985Z,528.75
2019-04-26T12:01:40.560Z,489.38
2019-04-26T12:02:38.015Z,511.88
2019-04-26T12:03:37.829Z,545.62
2019-04-26T12:04:37.887Z,562.50
2019-04-26T12:05:37.850Z,579.38
2019-04-26T12:06:37.928Z,590.62
2019-04-26T12:07:37.833Z,596.25
2019-04-26T12:08:37.807Z,596.25
2019-04-26T12:09:37.763Z,596.25
2019-04-26T12:10:40.443Z,596.25
2019-04-26T12:11:49.065Z,585.00
2019-04-26T12:12:38.794Z,568.12
2019-04-26T12:13:38.782Z,562.50
2019-04-26T12:14:37.734Z,568.12
2019-04-26T12:15:39.161Z,573.75
2019-04-26T12:16:48.156Z,601.88
2019-04-26T12:17:38.707Z,630.00
2019-04-26T12:18:40.216Z,658.12
2019-04-26T12:19:38.655Z,675.00
2019-04-26T12:20:37.734Z,697.50
2019-04-26T12:21:37.639Z,714.38
2019-04-26T12:22:39.467Z,720.00
2019-04-26T12:23:37.619Z,720.00
2019-04-26T12:24:37.770Z,697.50
2019-04-26T12:25:38.736Z,697.50
2019-04-26T12:26:43.023Z,691.88
2019-04-26T12:27:39.779Z,658.12
2019-04-26T12:28:39.976Z,680.62
2019-04-26T12:29:37.694Z,720.00
2019-04-26T12:30:37.604Z,793.12
2019-04-26T12:31:37.666Z,781.88
2019-04-26T12:32:37.575Z,787.50
2019-04-26T12:33:39.070Z,900.00
2019-04-26T12:34:38.621Z,894.38
2019-04-26T12:35:37.605Z,883.12
2019-04-26T12:36:37.615Z,787.50
2019-04-26T12:37:37.508Z,759.38
2019-04-26T12:38:38.554Z,748.12
2019-04-26T12:39:38.303Z,787.50
2019-04-26T12:40:38.429Z,821.25
2019-04-26T12:41:40.709Z,804.38
2019-04-26T12:42:37.641Z,776.25
2019-04-26T12:43:37.446Z,765.00
2019-04-26T12:44:41.123Z,770.62
2019-04-26T12:45:37.405Z,770.62
2019-04-26T12:46:37.483Z,748.12